Time,TemperatureF,DewpointF,PressureIn,WindDirection,WindDirectionDegrees,WindSpeedMPH,WindSpeedGustMPH,Humidity,HourlyPrecipIn,Conditions,Clouds,dailyrainin,SoftwareType,DateUTC
2013-08-26 00:01:00,67.3,67.3,30.37,ENE,58,0.0,0.0,100,0.00,RA,,0.00,WeatherDisplay:10.37,2013-08-26 04:01:00,
2013-08-26 00:06:00,67.1,67.1,30.37,ENE,58,0.0,0.0,100,0.00,RA,,0.00,WeatherDisplay:10.37,2013-08-26 04:06:00,
2013-08-26 00:11:00,67.0,67.0,30.36,ENE,58,0.0,0.0,100,0.00,CLR,,0.00,WeatherDisplay:10.37,2013-08-26 04:11:00,
2013-08-26 00:16:00,66.7,66.7,30.36,ENE,58,0.0,0.0,100,0.00,CLR,,0.00,WeatherDisplay:10.37,2013-08-26 04:16:00,
2013-08-26 00:21:00,66.8,66.8,30.37,ENE,58,0.0,0.0,100,0.00,CLR,,0.00,WeatherDisplay:10.37,2013-08-26 04:21:00,
2013-08-26 00:26:00,66.5,66.5,30.37,ENE,58,0.0,0.0,100,0.00,CLR,,0.00,WeatherDisplay:10.37,2013-08-26 04:26:00,
2013-08-26 00:31:00,66.4,66.4,30.37,ENE,58,0.0,0.0,100,0.00,CLR,,0.00,WeatherDisplay:10.37,2013-08-26 04:31:00,
2013-08-26 00:36:00,66.5,66.5,30.37,ENE,58,0.0,0.0,100,0.00,CLR,,0.00,WeatherDisplay:10.37,2013-08-26 04:36:00,
2013-08-26 00:41:00,66.4,66.4,30.37,ENE,58,0.0,0.0,100,0.00,CLR,,0.00,WeatherDisplay:10.37,2013-08-26 04:41:00,
2013-08-26 00:46:00,66.3,66.3,30.37,ENE,58,0.0,0.0,100,0.00,CLR,,0.00,WeatherDisplay:10.37,2013-08-26 04:46:00,
2013-08-26 00:51:00,66.1,66.1,30.36,ENE,58,0.0,0.0,100,0.00,CLR,,0.00,WeatherDisplay:10.37,2013-08-26 04:51:00,
2013-08-26 00:59:00,66.2,66.2,30.36,ENE,58,0.0,0.0,100,0.00,CLR,,0.00,WeatherDisplay:10.37,2013-08-26 04:59:00,
2013-08-26 01:04:00,66.1,66.1,30.36,ENE,58,0.0,0.0,100,0.00,CLR,,0.00,WeatherDisplay:10.37,2013-08-26 05:04:00,
2013-08-26 01:09:00,66.5,66.5,30.36,ENE,58,0.0,0.0,100,0.00,CLR,,0.00,WeatherDisplay:10.37,2013-08-26 05:09:00,
2013-08-26 01:14:00,66.9,66.9,30.36,ENE,58,0.0,0.0,100,0.00,CLR,,0.00,WeatherDisplay:10.37,2013-08-26 05:14:00,
2013-08-26 01:19:00,66.7,66.7,30.35,ENE,58,0.0,0.0,100,0.00,CLR,,0.00,WeatherDisplay:10.37,2013-08-26 05:19:00,
2013-08-26 01:24:00,66.3,66.3,30.36,ENE,58,0.0,0.0,100,0.00,CLR,,0.00,WeatherDisplay:10.37,2013-08-26 05:24:00,
2013-08-26 01:29:00,66.3,66.3,30.36,ENE,58,0.0,0.0,100,0.00,CLR,,0.00,WeatherDisplay:10.37,2013-08-26 05:29:00,
2013-08-26 01:34:00,66.0,66.0,30.36,ENE,58,0.0,0.0,100,0.00,CLR,,0.00,WeatherDisplay:10.37,2013-08-26 05:34:00,
2013-08-26 01:39:00,65.9,65.9,30.36,ENE,58,0.0,0.0,100,0.00,CLR,,0.00,WeatherDisplay:10.37,2013-08-26 05:39:00,
2013-08-26 01:44:00,65.7,65.7,30.35,ENE,58,0.0,0.0,100,0.00,CLR,,0.00,WeatherDisplay:10.37,2013-08-26 05:44:00,
2013-08-26 01:49:00,65.5,65.5,30.35,ENE,58,0.0,0.0,100,0.00,CLR,,0.00,WeatherDisplay:10.37,2013-08-26 05:49:00,
2013-08-26 01:54:00,65.5,65.5,30.34,ENE,58,0.0,0.0,100,0.00,CLR,,0.00,WeatherDisplay:10.37,2013-08-26 05:54:00,
2013-08-26 01:59:00,65.4,65.4,30.34,ENE,58,0.0,0.0,100,0.00,CLR,,0.00,WeatherDisplay:10.37,2013-08-26 05:59:00,
2013-08-26 02:04:00,65.3,65.3,30.34,ENE,58,0.0,0.0,100,0.00,CLR,,0.00,WeatherDisplay:10.37,2013-08-26 06:04:00,
2013-08-26 02:09:00,65.1,65.1,30.34,ENE,58,0.0,0.0,100,0.00,CLR,,0.00,WeatherDisplay:10.37,2013-08-26 06:09:00,
2013-08-26 02:15:00,65.1,65.1,30.34,ENE,58,0.0,0.0,100,0.00,CLR,,0.00,WeatherDisplay:10.37,2013-08-26 06:15:00,
2013-08-26 02:20:00,65.1,65.1,30.34,ENE,58,0.0,0.0,100,0.00,CLR,,0.00,WeatherDisplay:10.37,2013-08-26 06:20:00,
2013-08-26 02:25:00,65.1,65.1,30.34,ENE,58,0.0,0.0,100,0.00,CLR,,0.00,WeatherDisplay:10.37,2013-08-26 06:25:00,
2013-08-26 02:30:00,65.6,65.6,30.34,ENE,58,0.0,0.0,100,0.00,CLR,,0.00,WeatherDisplay:10.37,2013-08-26 06:30:00,
2013-08-26 02:35:00,65.3,65.3,30.33,ENE,58,0.0,0.0,100,0.00,CLR,,0.00,WeatherDisplay:10.37,2013-08-26 06:35:00,
2013-08-26 02:40:00,65.1,65.1,30.33,ENE,58,0.0,0.0,100,0.00,CLR,,0.00,WeatherDisplay:10.37,2013-08-26 06:40:00,
2013-08-26 02:45:00,64.8,64.8,30.33,ENE,58,0.0,0.0,100,0.00,CLR,,0.00,WeatherDisplay:10.37,2013-08-26 06:45:00,
2013-08-26 02:50:00,64.7,64.7,30.33,ENE,58,0.0,0.0,100,0.00,CLR,,0.00,WeatherDisplay:10.37,2013-08-26 06:50:00,
2013-08-26 02:55:00,64.4,64.4,30.33,ENE,58,0.0,0.0,100,0.00,CLR,,0.00,WeatherDisplay:10.37,2013-08-26 06:55:00,
2013-08-26 03:00:00,64.4,64.4,30.33,ENE,58,0.0,0.0,100,0.00,CLR,,0.00,WeatherDisplay:10.37,2013-08-26 07:00:00,
2013-08-26 03:05:00,64.6,64.6,30.33,ENE,58,0.0,0.0,100,0.00,CLR,,0.00,WeatherDisplay:10.37,2013-08-26 07:05:00,
2013-08-26 03:10:00,64.7,64.7,30.33,ENE,58,0.0,0.0,100,0.00,CLR,,0.00,WeatherDisplay:10.37,2013-08-26 07:10:00,
2013-08-26 03:15:00,64.5,64.5,30.32,ENE,58,0.0,0.0,100,0.00,CLR,,0.00,WeatherDisplay:10.37,2013-08-26 07:15:00,
2013-08-26 03:20:00,64.3,64.3,30.32,ENE,58,0.0,0.0,100,0.00,CLR,,0.00,WeatherDisplay:10.37,2013-08-26 07:20:00,
2013-08-26 03:25:00,64.1,64.1,30.32,ENE,58,0.0,0.0,100,0.00,CLR,,0.00,WeatherDisplay:10.37,2013-08-26 07:25:00,
2013-08-26 03:30:00,64.0,64.0,30.33,ENE,58,0.0,0.0,100,0.00,CLR,,0.00,WeatherDisplay:10.37,2013-08-26 07:30:00,
2013-08-26 03:35:00,63.8,63.8,30.32,ENE,58,0.0,0.0,100,0.00,CLR,,0.00,WeatherDisplay:10.37,2013-08-26 07:35:00,
2013-08-26 03:40:00,63.7,63.7,30.32,ENE,58,0.0,0.0,100,0.00,CLR,,0.00,WeatherDisplay:10.37,2013-08-26 07:40:00,
2013-08-26 03:45:00,63.6,63.6,30.32,ENE,58,0.0,0.0,100,0.00,CLR,,0.00,WeatherDisplay:10.37,2013-08-26 07:45:00,
2013-08-26 03:50:00,63.9,63.9,30.32,ENE,58,0.0,0.0,100,0.00,CLR,,0.00,WeatherDisplay:10.37,2013-08-26 07:50:00,
2013-08-26 03:55:00,63.9,63.9,30.33,ENE,58,0.0,0.0,100,0.00,CLR,,0.00,WeatherDisplay:10.37,2013-08-26 07:55:00,
2013-08-26 04:00:00,63.6,63.6,30.32,ENE,58,0.0,0.0,100,0.00,CLR,,0.00,WeatherDisplay:10.37,2013-08-26 08:00:00,
2013-08-26 04:05:00,63.4,63.4,30.32,ENE,58,0.0,0.0,100,0.00,CLR,,0.00,WeatherDisplay:10.37,2013-08-26 08:05:00,
2013-08-26 04:10:00,63.3,63.3,30.32,ENE,58,0.0,0.0,100,0.00,CLR,,0.00,WeatherDisplay:10.37,2013-08-26 08:10:00,
2013-08-26 04:15:00,63.1,63.1,30.32,ENE,58,0.0,0.0,100,0.00,CLR,,0.00,WeatherDisplay:10.37,2013-08-26 08:15:00,
2013-08-26 04:20:00,63.0,63.0,30.32,ENE,58,0.0,0.0,100,0.00,CLR,,0.00,WeatherDisplay:10.37,2013-08-26 08:20:00,
2013-08-26 04:25:00,62.9,62.9,30.32,ENE,58,0.0,0.0,100,0.00,CLR,,0.00,WeatherDisplay:10.37,2013-08-26 08:25:00,
2013-08-26 04:30:00,62.8,62.8,30.32,ENE,58,0.0,0.0,100,0.00,CLR,,0.00,WeatherDisplay:10.37,2013-08-26 08:30:00,
2013-08-26 04:35:00,63.0,63.0,30.32,ENE,58,0.0,0.0,100,0.00,CLR,,0.00,WeatherDisplay:10.37,2013-08-26 08:35:00,
2013-08-26 04:40:00,63.4,63.4,30.32,ENE,58,0.0,0.0,100,0.00,CLR,,0.00,WeatherDisplay:10.37,2013-08-26 08:40:00,
2013-08-26 04:45:00,63.4,63.4,30.32,ENE,58,0.0,0.0,100,0.00,CLR,,0.00,WeatherDisplay:10.37,2013-08-26 08:45:00,
2013-08-26 04:50:00,63.2,63.2,30.32,ENE,58,0.0,0.0,100,0.00,CLR,,0.00,WeatherDisplay:10.37,2013-08-26 08:50:00,
2013-08-26 04:55:00,63.2,63.2,30.32,ENE,58,0.0,0.0,100,0.00,CLR,,0.00,WeatherDisplay:10.37,2013-08-26 08:55:00,
2013-08-26 05:00:00,62.9,62.9,30.32,ENE,58,0.0,0.0,100,0.00,CLR,,0.00,WeatherDisplay:10.37,2013-08-26 09:00:00,
2013-08-26 05:05:00,62.6,62.6,30.32,ENE,58,0.0,0.0,100,0.00,CLR,,0.00,WeatherDisplay:10.37,2013-08-26 09:05:00,
2013-08-26 05:10:00,62.5,62.5,30.32,ENE,58,0.0,0.0,100,0.00,CLR,,0.00,WeatherDisplay:10.37,2013-08-26 09:10:00,
2013-08-26 05:15:00,62.4,62.4,30.32,ENE,58,0.0,0.0,100,0.00,CLR,,0.00,WeatherDisplay:10.37,2013-08-26 09:15:00,
2013-08-26 05:20:00,62.2,62.2,30.31,ENE,58,0.0,0.0,100,0.00,CLR,,0.00,WeatherDisplay:10.37,2013-08-26 09:20:00,
2013-08-26 05:25:00,62.1,62.1,30.31,ENE,58,0.0,0.0,100,0.00,CLR,,0.00,WeatherDisplay:10.37,2013-08-26 09:25:00,
2013-08-26 05:30:00,62.4,62.4,30.31,ENE,58,0.0,0.0,100,0.00,CLR,,0.00,WeatherDisplay:10.37,2013-08-26 09:30:00,
2013-08-26 05:35:00,62.7,62.7,30.31,ENE,58,0.0,0.0,100,0.00,CLR,,0.00,WeatherDisplay:10.37,2013-08-26 09:35:00,
2013-08-26 05:40:00,62.6,62.6,30.31,ENE,58,0.0,0.0,100,0.00,CLR,,0.00,WeatherDisplay:10.37,2013-08-26 09:40:00,
2013-08-26 05:45:00,62.3,62.3,30.31,ENE,58,0.0,0.0,100,0.00,CLR,,0.00,WeatherDisplay:10.37,2013-08-26 09:45:00,
2013-08-26 05:50:00,62.3,62.3,30.31,ENE,58,0.0,0.0,100,0.00,CLR,,0.00,WeatherDisplay:10.37,2013-08-26 09:50:00,
2013-08-26 05:55:00,62.0,62.0,30.31,ENE,58,0.0,0.0,100,0.00,CLR,,0.00,WeatherDisplay:10.37,2013-08-26 09:55:00,
2013-08-26 06:00:00,61.9,61.9,30.31,ENE,58,0.0,0.0,100,0.00,CLR,,0.00,WeatherDisplay:10.37,2013-08-26 10:00:00,
2013-08-26 06:05:00,61.8,61.8,30.31,ENE,58,0.0,0.0,100,0.00,CLR,,0.00,WeatherDisplay:10.37,2013-08-26 10:05:00,
2013-08-26 06:10:00,61.7,61.7,30.31,ENE,58,0.0,0.0,100,0.00,CLR,,0.00,WeatherDisplay:10.37,2013-08-26 10:10:00,
2013-08-26 06:15:00,61.7,61.7,30.31,ENE,58,0.0,0.0,100,0.00,CLR,,0.00,WeatherDisplay:10.37,2013-08-26 10:15:00,
2013-08-26 06:20:00,61.7,61.7,30.31,ENE,58,0.0,0.0,100,0.00,CLR,,0.00,WeatherDisplay:10.37,2013-08-26 10:20:00,
2013-08-26 06:25:00,61.7,61.7,30.31,ENE,58,0.0,0.0,100,0.00,CLR,,0.00,WeatherDisplay:10.37,2013-08-26 10:25:00,
2013-08-26 06:30:00,61.6,61.6,30.31,ENE,58,0.0,0.0,100,0.00,CLR,,0.00,WeatherDisplay:10.37,2013-08-26 10:30:00,
2013-08-26 06:35:00,61.6,61.6,30.30,ENE,58,0.0,0.0,100,0.00,CLR,,0.00,WeatherDisplay:10.37,2013-08-26 10:35:00,
2013-08-26 06:40:00,61.5,61.5,30.30,ENE,58,0.0,0.0,100,0.00,CLR,,0.00,WeatherDisplay:10.37,2013-08-26 10:40:00,
2013-08-26 06:45:00,61.4,61.4,30.31,ENE,58,0.0,0.0,100,0.00,CLR,,0.00,WeatherDisplay:10.37,2013-08-26 10:45:00,
2013-08-26 06:50:00,61.4,61.4,30.31,ENE,58,0.0,0.0,100,0.00,CLR,,0.00,WeatherDisplay:10.37,2013-08-26 10:50:00,
2013-08-26 06:55:00,61.3,61.3,30.31,ENE,58,0.0,0.0,100,0.00,CLR,,0.00,WeatherDisplay:10.37,2013-08-26 10:55:00,
2013-08-26 07:00:00,61.2,61.2,30.31,ENE,58,0.0,0.0,100,0.00,CLR,,0.00,WeatherDisplay:10.37,2013-08-26 11:00:00,
2013-08-26 07:05:00,61.2,61.2,30.31,ENE,58,0.0,0.0,100,0.00,CLR,,0.00,WeatherDisplay:10.37,2013-08-26 11:05:00,
2013-08-26 07:10:00,61.2,61.2,30.31,ENE,58,0.0,0.0,100,0.00,CLR,,0.00,WeatherDisplay:10.37,2013-08-26 11:10:00,
2013-08-26 07:16:00,61.2,61.2,30.31,ENE,58,0.0,0.0,100,0.00,CLR,,0.00,WeatherDisplay:10.37,2013-08-26 11:16:00,
2013-08-26 07:21:00,61.2,61.2,30.31,ENE,58,0.0,0.0,100,0.00,CLR,,0.00,WeatherDisplay:10.37,2013-08-26 11:21:00,
2013-08-26 07:26:00,61.2,61.2,30.31,ENE,58,0.0,0.0,100,0.00,CLR,,0.00,WeatherDisplay:10.37,2013-08-26 11:26:00,
2013-08-26 07:31:00,61.2,61.2,30.32,ENE,58,0.0,0.0,100,0.00,CLR,,0.00,WeatherDisplay:10.37,2013-08-26 11:31:00,
2013-08-26 07:36:00,61.2,61.2,30.32,ENE,58,0.0,0.0,100,0.00,CLR,,0.00,WeatherDisplay:10.37,2013-08-26 11:36:00,
2013-08-26 07:41:00,61.7,61.7,30.32,ENE,58,0.0,0.0,100,0.00,CLR,,0.00,WeatherDisplay:10.37,2013-08-26 11:41:00,
2013-08-26 07:46:00,63.0,63.0,30.32,ENE,58,0.0,0.0,100,0.00,CLR,,0.00,WeatherDisplay:10.37,2013-08-26 11:46:00,
2013-08-26 07:51:00,63.4,63.4,30.32,ENE,58,0.0,0.0,100,0.00,CLR,,0.00,WeatherDisplay:10.37,2013-08-26 11:51:00,
2013-08-26 07:56:00,63.3,63.3,30.32,ENE,58,0.0,0.0,100,0.00,CLR,,0.00,WeatherDisplay:10.37,2013-08-26 11:56:00,
2013-08-26 08:01:00,62.9,62.9,30.32,ENE,58,0.0,0.0,100,0.00,CLR,,0.00,WeatherDisplay:10.37,2013-08-26 12:01:00,
2013-08-26 08:06:00,62.7,62.7,30.32,ENE,58,0.0,0.0,100,0.00,CLR,,0.00,WeatherDisplay:10.37,2013-08-26 12:06:00,
2013-08-26 08:11:00,62.5,62.5,30.32,ENE,58,0.0,0.0,100,0.00,CLR,,0.00,WeatherDisplay:10.37,2013-08-26 12:11:00,
2013-08-26 08:16:00,62.5,62.5,30.32,ENE,58,0.0,0.0,100,0.00,CLR,,0.00,WeatherDisplay:10.37,2013-08-26 12:16:00,
2013-08-26 08:21:00,62.5,62.5,30.32,ENE,58,0.0,0.0,100,0.00,CLR,,0.00,WeatherDisplay:10.37,2013-08-26 12:21:00,
2013-08-26 08:26:00,62.7,62.7,30.32,ENE,58,0.0,0.0,100,0.00,CLR,,0.00,WeatherDisplay:10.37,2013-08-26 12:26:00,
2013-08-26 08:31:00,62.9,62.9,30.33,ENE,58,0.0,0.0,100,0.00,CLR,,0.00,WeatherDisplay:10.37,2013-08-26 12:31:00,
2013-08-26 08:36:00,63.0,63.0,30.32,ENE,58,0.0,0.0,100,0.00,CLR,,0.00,WeatherDisplay:10.37,2013-08-26 12:36:00,
2013-08-26 08:41:00,63.1,63.1,30.32,ENE,58,0.0,0.0,100,0.00,CLR,,0.00,WeatherDisplay:10.37,2013-08-26 12:41:00,
2013-08-26 08:46:00,63.3,63.3,30.32,ENE,58,0.0,0.0,100,0.00,CLR,,0.00,WeatherDisplay:10.37,2013-08-26 12:46:00,
2013-08-26 08:51:00,63.8,63.8,30.33,ENE,58,0.0,0.0,100,0.00,CLR,,0.00,WeatherDisplay:10.37,2013-08-26 12:51:00,
2013-08-26 08:56:00,64.1,64.1,30.32,ENE,58,0.0,0.0,100,0.00,CLR,,0.00,WeatherDisplay:10.37,2013-08-26 12:56:00,
2013-08-26 09:01:00,64.6,64.6,30.33,ENE,58,0.0,0.0,100,0.00,CLR,,0.00,WeatherDisplay:10.37,2013-08-26 13:01:00,
2013-08-26 09:06:00,65.1,65.1,30.32,ENE,58,0.0,0.0,100,0.00,CLR,,0.00,WeatherDisplay:10.37,2013-08-26 13:06:00,
2013-08-26 09:11:00,65.4,65.4,30.32,ENE,58,0.0,0.0,100,0.00,CLR,,0.00,WeatherDisplay:10.37,2013-08-26 13:11:00,
2013-08-26 09:16:00,65.9,65.9,30.33,ENE,58,0.0,0.0,100,0.00,CLR,,0.00,WeatherDisplay:10.37,2013-08-26 13:16:00,
2013-08-26 09:21:00,66.7,66.7,30.33,ENE,58,0.0,0.0,100,0.00,CLR,,0.00,WeatherDisplay:10.37,2013-08-26 13:21:00,
2013-08-26 09:26:00,68.2,68.2,30.32,ENE,58,0.0,0.0,100,0.00,CLR,,0.00,WeatherDisplay:10.37,2013-08-26 13:26:00,
2013-08-26 09:31:00,68.7,68.7,30.33,ENE,58,0.0,0.0,100,0.00,CLR,,0.00,WeatherDisplay:10.37,2013-08-26 13:31:00,
2013-08-26 09:36:00,68.7,68.7,30.33,ENE,58,0.0,0.0,100,0.00,CLR,,0.00,WeatherDisplay:10.37,2013-08-26 13:36:00,
2013-08-26 09:41:00,68.7,68.7,30.33,ENE,58,0.0,0.0,100,0.00,CLR,,0.00,WeatherDisplay:10.37,2013-08-26 13:41:00,
2013-08-26 09:46:00,68.9,68.9,30.33,ENE,58,0.0,0.0,100,0.00,CLR,,0.00,WeatherDisplay:10.37,2013-08-26 13:46:00,
2013-08-26 09:51:00,70.0,70.0,30.34,ENE,58,0.0,0.0,100,0.00,CLR,,0.00,WeatherDisplay:10.37,2013-08-26 13:51:00,
2013-08-26 09:56:00,70.7,70.7,30.34,ENE,58,0.0,0.0,100,0.00,CLR,,0.00,WeatherDisplay:10.37,2013-08-26 13:56:00,
2013-08-26 10:01:00,70.5,70.5,30.34,ENE,58,0.0,0.0,100,0.00,CLR,,0.00,WeatherDisplay:10.37,2013-08-26 14:01:00,
2013-08-26 10:06:00,70.3,70.0,30.34,ENE,58,0.0,0.0,99,0.00,CLR,,0.00,WeatherDisplay:10.37,2013-08-26 14:06:00,
2013-08-26 10:11:00,70.5,69.9,30.34,ENE,58,0.0,0.0,98,0.00,CLR,,0.00,WeatherDisplay:10.37,2013-08-26 14:11:00,
2013-08-26 10:16:00,71.9,68.8,30.34,ENE,58,0.0,0.0,90,0.00,CLR,,0.00,WeatherDisplay:10.37,2013-08-26 14:16:00,
2013-08-26 10:21:00,72.5,68.1,30.34,ENE,58,0.0,0.0,86,0.00,CLR,,0.00,WeatherDisplay:10.37,2013-08-26 14:21:00,
2013-08-26 10:26:00,72.3,66.5,30.34,ENE,58,0.0,0.0,82,0.00,CLR,,0.00,WeatherDisplay:10.37,2013-08-26 14:26:00,
2013-08-26 10:31:00,72.2,65.7,30.33,ENE,58,0.0,0.0,80,0.00,CLR,,0.00,WeatherDisplay:10.37,2013-08-26 14:31:00,
2013-08-26 10:36:00,72.3,65.1,30.33,ENE,58,0.0,0.0,78,0.00,CLR,,0.00,WeatherDisplay:10.37,2013-08-26 14:36:00,
2013-08-26 10:41:00,72.3,63.5,30.33,ENE,58,0.0,0.0,74,0.00,CLR,,0.00,WeatherDisplay:10.37,2013-08-26 14:41:00,
2013-08-26 10:46:00,72.3,63.5,30.34,SW,220,1.2,1.2,74,0.00,CLR,,0.00,WeatherDisplay:10.37,2013-08-26 14:46:00,
2013-08-26 10:51:00,72.4,62.1,30.34,SSW,198,1.2,1.2,70,0.00,CLR,,0.00,WeatherDisplay:10.37,2013-08-26 14:51:00,
2013-08-26 10:56:00,72.4,62.1,30.34,SSW,198,0.0,0.0,70,0.00,CLR,,0.00,WeatherDisplay:10.37,2013-08-26 14:56:00,
2013-08-26 11:01:00,72.5,62.6,30.34,SSW,198,0.0,0.0,71,0.00,CLR,,0.00,WeatherDisplay:10.37,2013-08-26 15:01:00,
2013-08-26 11:06:00,72.6,62.3,30.33,SSW,198,0.0,0.0,70,0.00,CLR,,0.00,WeatherDisplay:10.37,2013-08-26 15:06:00,
2013-08-26 11:11:00,72.9,62.1,30.33,South,178,0.0,0.2,69,0.00,CLR,,0.00,WeatherDisplay:10.37,2013-08-26 15:11:00,
2013-08-26 11:16:00,73.1,61.9,30.33,South,178,0.0,0.0,68,0.00,CLR,,0.00,WeatherDisplay:10.37,2013-08-26 15:16:00,
2013-08-26 11:21:00,73.2,62.8,30.33,South,191,0.0,0.0,70,0.00,CLR,,0.00,WeatherDisplay:10.37,2013-08-26 15:21:00,
2013-08-26 11:26:00,73.3,62.1,30.33,South,191,0.0,0.0,68,0.00,CLR,,0.00,WeatherDisplay:10.37,2013-08-26 15:26:00,
2013-08-26 11:31:00,73.5,62.3,30.33,NW,306,2.7,2.7,68,0.00,CLR,,0.00,WeatherDisplay:10.37,2013-08-26 15:31:00,
2013-08-26 11:36:00,73.8,63.0,30.33,SW,217,2.3,2.3,69,0.00,CLR,,0.00,WeatherDisplay:10.37,2013-08-26 15:36:00,
2013-08-26 11:41:00,74.1,62.9,30.33,SW,217,0.0,0.0,68,0.00,CLR,,0.00,WeatherDisplay:10.37,2013-08-26 15:41:00,
2013-08-26 11:46:00,74.5,64.1,30.33,West,274,2.3,2.3,70,0.00,CLR,,0.00,WeatherDisplay:10.37,2013-08-26 15:46:00,
2013-08-26 11:51:00,75.0,63.3,30.33,WNW,288,2.3,2.3,67,0.00,CLR,,0.00,WeatherDisplay:10.37,2013-08-26 15:51:00,
2013-08-26 11:56:00,75.2,61.7,30.32,WNW,288,0.0,0.0,63,0.00,CLR,,0.00,WeatherDisplay:10.37,2013-08-26 15:56:00,
2013-08-26 12:01:00,75.4,62.4,30.32,WNW,288,1.2,0.0,64,0.00,CLR,,0.00,WeatherDisplay:10.37,2013-08-26 16:01:00,
2013-08-26 12:06:00,75.9,62.8,30.32,WNW,288,0.0,0.0,64,0.00,CLR,,0.00,WeatherDisplay:10.37,2013-08-26 16:06:00,
2013-08-26 12:11:00,76.4,63.3,30.31,WNW,288,0.0,0.0,64,0.00,CLR,,0.00,WeatherDisplay:10.37,2013-08-26 16:11:00,
2013-08-26 12:16:00,77.2,64.1,30.31,WNW,288,0.0,0.0,64,0.00,CLR,,0.00,WeatherDisplay:10.37,2013-08-26 16:16:00,
2013-08-26 12:21:00,77.8,63.3,30.31,WNW,288,0.0,0.0,61,0.00,CLR,,0.00,WeatherDisplay:10.37,2013-08-26 16:21:00,
2013-08-26 12:26:00,78.1,63.1,30.31,WNW,288,0.0,0.0,60,0.00,CLR,,0.00,WeatherDisplay:10.37,2013-08-26 16:26:00,
2013-08-26 12:31:00,78.9,62.9,30.31,WNW,288,0.0,0.0,58,0.00,CLR,,0.00,WeatherDisplay:10.37,2013-08-26 16:31:00,
2013-08-26 12:36:00,79.4,61.8,30.30,WNW,288,0.0,0.0,55,0.00,CLR,,0.00,WeatherDisplay:10.37,2013-08-26 16:36:00,
2013-08-26 12:41:00,79.7,62.6,30.30,WNW,288,0.0,0.0,56,0.00,CLR,,0.00,WeatherDisplay:10.37,2013-08-26 16:41:00,
2013-08-26 12:46:00,80.1,63.0,30.30,WNW,288,0.0,0.0,56,0.00,CLR,,0.00,WeatherDisplay:10.37,2013-08-26 16:46:00,
2013-08-26 12:51:00,80.4,63.3,30.30,WNW,288,0.0,0.0,56,0.00,CLR,,0.00,WeatherDisplay:10.37,2013-08-26 16:51:00,
2013-08-26 12:56:00,80.8,63.6,30.30,WNW,288,0.0,0.0,56,0.00,CLR,,0.00,WeatherDisplay:10.37,2013-08-26 16:56:00,
2013-08-26 13:01:00,82.2,63.4,30.29,NNE,23,0.0,0.0,53,0.00,CLR,,0.00,WeatherDisplay:10.37,2013-08-26 17:01:00,
2013-08-26 13:06:00,83.8,63.7,30.29,East,96,0.0,0.3,51,0.00,CLR,,0.00,WeatherDisplay:10.37,2013-08-26 17:06:00,
2013-08-26 13:11:00,84.3,63.1,30.29,East,96,0.0,0.0,49,0.00,CLR,,0.00,WeatherDisplay:10.37,2013-08-26 17:11:00,
2013-08-26 13:17:00,83.6,63.0,30.29,East,96,0.0,0.0,50,0.00,CLR,,0.00,WeatherDisplay:10.37,2013-08-26 17:17:00,
2013-08-26 13:22:00,83.3,63.3,30.29,East,96,0.0,0.0,51,0.00,CLR,,0.00,WeatherDisplay:10.37,2013-08-26 17:22:00,
2013-08-26 13:27:00,84.2,63.0,30.29,East,96,0.0,0.0,49,0.00,CLR,,0.00,WeatherDisplay:10.37,2013-08-26 17:27:00,
2013-08-26 13:32:00,85.4,62.9,30.29,SSW,199,0.0,0.0,47,0.00,CLR,,0.00,WeatherDisplay:10.37,2013-08-26 17:32:00,
2013-08-26 13:37:00,84.9,62.4,30.28,North,1,0.0,0.3,47,0.00,CLR,,0.00,WeatherDisplay:10.37,2013-08-26 17:37:00,
2013-08-26 13:42:00,84.1,60.5,30.28,North,1,0.0,0.0,45,0.00,CLR,,0.00,WeatherDisplay:10.37,2013-08-26 17:42:00,
2013-08-26 13:47:00,84.3,61.9,30.28,North,356,2.3,2.3,47,0.00,CLR,,0.00,WeatherDisplay:10.37,2013-08-26 17:47:00,
2013-08-26 13:52:00,84.4,62.6,30.28,North,356,0.0,0.0,48,0.00,CLR,,0.00,WeatherDisplay:10.37,2013-08-26 17:52:00,
2013-08-26 13:57:00,84.2,63.0,30.28,ESE,113,1.2,0.0,49,0.00,CLR,,0.00,WeatherDisplay:10.37,2013-08-26 17:57:00,
2013-08-26 14:02:00,84.7,62.2,30.28,ESE,113,0.0,0.0,47,0.00,CLR,,0.00,WeatherDisplay:10.37,2013-08-26 18:02:00,
2013-08-26 14:07:00,85.1,62.6,30.27,ESE,113,0.0,0.0,47,0.00,CLR,,0.00,WeatherDisplay:10.37,2013-08-26 18:07:00,
2013-08-26 14:12:00,84.9,61.2,30.27,ESE,113,0.0,0.0,45,0.00,CLR,,0.00,WeatherDisplay:10.37,2013-08-26 18:12:00,
2013-08-26 14:17:00,84.6,61.5,30.27,ESE,113,0.0,0.0,46,0.00,CLR,,0.00,WeatherDisplay:10.37,2013-08-26 18:17:00,
2013-08-26 14:22:00,84.4,60.7,30.27,ESE,113,0.0,0.0,45,0.00,CLR,,0.00,WeatherDisplay:10.37,2013-08-26 18:22:00,
2013-08-26 14:27:00,85.6,61.2,30.26,East,85,1.2,1.2,44,0.00,CLR,,0.00,WeatherDisplay:10.37,2013-08-26 18:27:00,
2013-08-26 14:32:00,85.4,59.7,30.26,NNE,14,1.2,1.2,42,0.00,CLR,,0.00,WeatherDisplay:10.37,2013-08-26 18:32:00,
2013-08-26 14:37:00,85.0,60.6,30.26,East,80,3.5,3.5,44,0.00,CLR,,0.00,WeatherDisplay:10.37,2013-08-26 18:37:00,
2013-08-26 14:42:00,84.5,60.2,30.26,NNE,31,0.0,0.0,44,0.00,CLR,,0.00,WeatherDisplay:10.37,2013-08-26 18:42:00,
2013-08-26 14:47:00,85.5,61.1,30.26,NW,313,0.0,0.0,44,0.00,CLR,,0.00,WeatherDisplay:10.37,2013-08-26 18:47:00,
2013-08-26 14:52:00,85.6,60.5,30.26,NE,45,3.5,3.5,43,0.00,CLR,,0.00,WeatherDisplay:10.37,2013-08-26 18:52:00,
2013-08-26 14:57:00,85.4,61.6,30.25,North,10,0.0,0.0,45,0.00,CLR,,0.00,WeatherDisplay:10.37,2013-08-26 18:57:00,
2013-08-26 15:02:00,84.9,61.8,30.25,ENE,68,0.0,0.0,46,0.00,CLR,,0.00,WeatherDisplay:10.37,2013-08-26 19:02:00,
2013-08-26 15:07:00,85.3,62.2,30.24,ENE,68,0.0,0.0,46,0.00,CLR,,0.00,WeatherDisplay:10.37,2013-08-26 19:07:00,
2013-08-26 15:12:00,85.4,61.0,30.24,North,7,0.0,0.0,44,0.00,CLR,,0.00,WeatherDisplay:10.37,2013-08-26 19:12:00,
2013-08-26 15:17:00,85.7,61.3,30.24,North,7,0.0,0.0,44,0.00,CLR,,0.00,WeatherDisplay:10.37,2013-08-26 19:17:00,
2013-08-26 15:22:00,85.6,61.2,30.24,East,90,1.2,1.2,44,0.00,CLR,,0.00,WeatherDisplay:10.37,2013-08-26 19:22:00,
2013-08-26 15:27:00,85.4,62.3,30.23,West,274,1.2,1.2,46,0.00,CLR,,0.00,WeatherDisplay:10.37,2013-08-26 19:27:00,
2013-08-26 15:32:00,85.5,61.7,30.23,West,274,0.0,0.0,45,0.00,CLR,,0.00,WeatherDisplay:10.37,2013-08-26 19:32:00,
2013-08-26 15:37:00,85.7,61.3,30.23,West,274,0.7,0.7,44,0.00,CLR,,0.00,WeatherDisplay:10.37,2013-08-26 19:37:00,
2013-08-26 15:42:00,85.5,61.7,30.23,West,274,0.0,0.0,45,0.00,CLR,,0.00,WeatherDisplay:10.37,2013-08-26 19:42:00,
2013-08-26 15:47:00,85.1,61.4,30.22,West,274,0.0,0.0,45,0.00,CLR,,0.00,WeatherDisplay:10.37,2013-08-26 19:47:00,
2013-08-26 15:52:00,85.0,60.6,30.22,West,274,0.0,0.0,44,0.00,CLR,,0.00,WeatherDisplay:10.37,2013-08-26 19:52:00,
2013-08-26 15:57:00,85.1,60.1,30.22,NNE,13,0.0,0.0,43,0.00,CLR,,0.00,WeatherDisplay:10.37,2013-08-26 19:57:00,
2013-08-26 16:02:00,84.6,60.3,30.22,NNE,13,0.0,0.0,44,0.00,CLR,,0.00,WeatherDisplay:10.37,2013-08-26 20:02:00,
2013-08-26 16:07:00,84.3,62.5,30.22,NNE,13,0.0,0.0,48,0.00,CLR,,0.00,WeatherDisplay:10.37,2013-08-26 20:07:00,
2013-08-26 16:12:00,84.3,62.5,30.21,NNE,13,0.0,0.0,48,0.00,CLR,,0.00,WeatherDisplay:10.37,2013-08-26 20:12:00,
2013-08-26 16:17:00,84.3,62.5,30.21,NNE,13,0.0,0.0,48,0.00,CLR,,0.00,WeatherDisplay:10.37,2013-08-26 20:17:00,
2013-08-26 16:22:00,84.2,61.8,30.21,West,270,3.5,3.5,47,0.00,CLR,,0.00,WeatherDisplay:10.37,2013-08-26 20:22:00,
2013-08-26 16:27:00,84.2,61.8,30.21,West,277,1.9,1.9,47,0.00,CLR,,0.00,WeatherDisplay:10.37,2013-08-26 20:27:00,
2013-08-26 16:32:00,84.8,61.1,30.21,West,281,0.0,0.0,45,0.00,CLR,,0.00,WeatherDisplay:10.37,2013-08-26 20:32:00,
2013-08-26 16:37:00,84.9,61.2,30.21,West,281,0.0,0.0,45,0.00,CLR,,0.00,WeatherDisplay:10.37,2013-08-26 20:37:00,
2013-08-26 16:42:00,84.5,61.4,30.20,SW,234,2.3,2.3,46,0.00,CLR,,0.00,WeatherDisplay:10.37,2013-08-26 20:42:00,
2013-08-26 16:47:00,84.2,61.2,30.20,SW,226,4.0,4.0,46,0.00,CLR,,0.00,WeatherDisplay:10.37,2013-08-26 20:47:00,
2013-08-26 16:52:00,85.5,62.4,30.20,SW,222,0.0,0.0,46,0.00,CLR,,0.00,WeatherDisplay:10.37,2013-08-26 20:52:00,
2013-08-26 16:57:00,85.5,61.1,30.20,WNW,285,0.0,0.0,44,0.00,CLR,,0.00,WeatherDisplay:10.37,2013-08-26 20:57:00,
2013-08-26 17:02:00,85.5,62.4,30.20,SSW,209,1.2,0.0,46,0.00,CLR,,0.00,WeatherDisplay:10.37,2013-08-26 21:02:00,
2013-08-26 17:07:00,86.4,63.2,30.20,SW,226,1.2,0.0,46,0.00,CLR,,0.00,WeatherDisplay:10.37,2013-08-26 21:07:00,
2013-08-26 17:12:00,86.5,63.3,30.20,SW,227,1.2,0.0,46,0.00,CLR,,0.00,WeatherDisplay:10.37,2013-08-26 21:12:00,
2013-08-26 17:17:00,86.3,63.1,30.20,SW,227,0.0,0.0,46,0.00,CLR,,0.00,WeatherDisplay:10.37,2013-08-26 21:17:00,
2013-08-26 17:22:00,86.5,62.0,30.20,SW,227,0.0,0.0,44,0.00,CLR,,0.00,WeatherDisplay:10.37,2013-08-26 21:22:00,
2013-08-26 17:27:00,85.9,62.1,30.20,SW,227,0.0,0.0,45,0.00,CLR,,0.00,WeatherDisplay:10.37,2013-08-26 21:27:00,
2013-08-26 17:32:00,86.3,61.2,30.19,SW,227,0.0,0.0,43,0.00,CLR,,0.00,WeatherDisplay:10.37,2013-08-26 21:32:00,
2013-08-26 17:37:00,86.6,62.1,30.20,SW,227,0.0,0.0,44,0.00,CLR,,0.00,WeatherDisplay:10.37,2013-08-26 21:37:00,
2013-08-26 17:42:00,86.8,61.6,30.19,SW,227,0.0,0.0,43,0.00,CLR,,0.00,WeatherDisplay:10.37,2013-08-26 21:42:00,
2013-08-26 17:47:00,86.5,61.3,30.19,SW,227,0.0,0.0,43,0.00,CLR,,0.00,WeatherDisplay:10.37,2013-08-26 21:47:00,
2013-08-26 17:52:00,86.3,62.5,30.19,SW,227,0.0,0.0,45,0.00,CLR,,0.00,WeatherDisplay:10.37,2013-08-26 21:52:00,
2013-08-26 17:57:00,86.3,61.8,30.19,SW,227,0.0,0.0,44,0.00,CLR,,0.00,WeatherDisplay:10.37,2013-08-26 21:57:00,
2013-08-26 18:02:00,85.8,61.4,30.19,SW,227,0.0,0.0,44,0.00,CLR,,0.00,WeatherDisplay:10.37,2013-08-26 22:02:00,
2013-08-26 18:07:00,85.4,62.9,30.19,SW,227,0.0,0.0,47,0.00,CLR,,0.00,WeatherDisplay:10.37,2013-08-26 22:07:00,
2013-08-26 18:12:00,85.0,62.5,30.19,SW,227,0.0,0.0,47,0.00,CLR,,0.00,WeatherDisplay:10.37,2013-08-26 22:12:00,
2013-08-26 18:17:00,84.4,63.2,30.19,SW,227,0.0,0.0,49,0.00,CLR,,0.00,WeatherDisplay:10.37,2013-08-26 22:17:00,
2013-08-26 18:22:00,83.9,64.9,30.19,SW,227,0.0,0.0,53,0.00,CLR,,0.00,WeatherDisplay:10.37,2013-08-26 22:22:00,
2013-08-26 18:27:00,83.4,65.0,30.19,SW,227,0.0,0.0,54,0.00,CLR,,0.00,WeatherDisplay:10.37,2013-08-26 22:27:00,
2013-08-26 18:32:00,82.9,66.1,30.19,SW,227,0.0,0.0,57,0.00,CLR,,0.00,WeatherDisplay:10.37,2013-08-26 22:32:00,
2013-08-26 18:37:00,82.3,66.5,30.19,SW,227,0.0,0.0,59,0.00,CLR,,0.00,WeatherDisplay:10.37,2013-08-26 22:37:00,
2013-08-26 18:42:00,81.9,65.7,30.19,SW,227,0.0,0.0,58,0.00,CLR,,0.00,WeatherDisplay:10.37,2013-08-26 22:42:00,
2013-08-26 18:47:00,81.7,66.5,30.19,SW,227,0.0,0.0,60,0.00,CLR,,0.00,WeatherDisplay:10.37,2013-08-26 22:47:00,
2013-08-26 18:52:00,81.6,66.8,30.19,SW,227,0.0,0.0,61,0.00,CLR,,0.00,WeatherDisplay:10.37,2013-08-26 22:52:00,
2013-08-26 18:57:00,81.1,66.8,30.18,SW,227,0.0,0.0,62,0.00,CLR,,0.00,WeatherDisplay:10.37,2013-08-26 22:57:00,
2013-08-26 19:02:00,80.8,68.4,30.18,SW,227,0.0,0.0,66,0.00,CLR,,0.00,WeatherDisplay:10.37,2013-08-26 23:02:00,
2013-08-26 19:07:00,80.5,68.5,30.18,SW,227,0.0,0.0,67,0.00,CLR,,0.00,WeatherDisplay:10.37,2013-08-26 23:07:00,
2013-08-26 19:12:00,80.3,68.8,30.18,SW,227,0.0,0.0,68,0.00,CLR,,0.00,WeatherDisplay:10.37,2013-08-26 23:12:00,
2013-08-26 19:18:00,80.0,70.2,30.18,SW,227,0.0,0.0,72,0.00,CLR,,0.00,WeatherDisplay:10.37,2013-08-26 23:18:00,
2013-08-26 19:23:00,79.8,70.8,30.18,SW,227,0.0,0.0,74,0.00,CLR,,0.00,WeatherDisplay:10.37,2013-08-26 23:23:00,
2013-08-26 19:28:00,79.7,71.5,30.19,SW,227,0.0,0.0,76,0.00,CLR,,0.00,WeatherDisplay:10.37,2013-08-26 23:28:00,
2013-08-26 19:33:00,79.3,71.1,30.19,SW,227,0.0,0.0,76,0.00,CLR,,0.00,WeatherDisplay:10.37,2013-08-26 23:33:00,
2013-08-26 19:38:00,78.9,71.1,30.19,SW,227,0.0,0.0,77,0.00,CLR,,0.00,WeatherDisplay:10.37,2013-08-26 23:38:00,
2013-08-26 19:43:00,78.4,71.3,30.19,SW,227,0.0,0.0,79,0.00,CLR,,0.00,WeatherDisplay:10.37,2013-08-26 23:43:00,
2013-08-26 19:48:00,78.3,72.0,30.19,SW,227,0.0,0.0,81,0.00,CLR,,0.00,WeatherDisplay:10.37,2013-08-26 23:48:00,
2013-08-26 19:53:00,78.5,72.9,30.19,SW,227,0.0,0.0,83,0.00,CLR,,0.00,WeatherDisplay:10.37,2013-08-26 23:53:00,
2013-08-26 19:58:00,78.3,72.0,30.18,SW,227,0.0,0.0,81,0.00,CLR,,0.00,WeatherDisplay:10.37,2013-08-26 23:58:00,
2013-08-26 20:03:00,77.8,71.5,30.19,SW,227,0.0,0.0,81,0.00,CLR,,0.00,WeatherDisplay:10.37,2013-08-27 00:03:00,
2013-08-26 20:08:00,77.2,72.0,30.19,SW,227,0.0,0.0,84,0.00,CLR,,0.00,WeatherDisplay:10.37,2013-08-27 00:08:00,
2013-08-26 20:13:00,76.8,71.9,30.19,SW,227,0.0,0.0,85,0.00,CLR,,0.00,WeatherDisplay:10.37,2013-08-27 00:13:00,
2013-08-26 20:18:00,76.1,72.3,30.18,SW,227,0.0,0.0,88,0.00,CLR,,0.00,WeatherDisplay:10.37,2013-08-27 00:18:00,
2013-08-26 20:23:00,75.8,72.7,30.18,SW,227,0.0,0.0,90,0.00,CLR,,0.00,WeatherDisplay:10.37,2013-08-27 00:23:00,
2013-08-26 20:28:00,75.4,72.3,30.18,SW,227,0.0,0.0,90,0.00,CLR,,0.00,WeatherDisplay:10.37,2013-08-27 00:28:00,
2013-08-26 20:33:00,75.3,72.5,30.18,SW,227,0.0,0.0,91,0.00,CLR,,0.00,WeatherDisplay:10.37,2013-08-27 00:33:00,
2013-08-26 20:38:00,75.1,72.6,30.18,SW,227,0.0,0.0,92,0.00,CLR,,0.00,WeatherDisplay:10.37,2013-08-27 00:38:00,
2013-08-26 20:43:00,74.6,72.8,30.18,SW,227,0.0,0.0,94,0.00,CLR,,0.00,WeatherDisplay:10.37,2013-08-27 00:43:00,
2013-08-26 20:48:00,74.3,72.5,30.19,SW,227,0.0,0.0,94,0.00,CLR,,0.00,WeatherDisplay:10.37,2013-08-27 00:48:00,
2013-08-26 20:53:00,74.3,72.8,30.19,SW,227,0.0,0.0,95,0.00,CLR,,0.00,WeatherDisplay:10.37,2013-08-27 00:53:00,
2013-08-26 20:58:00,74.1,72.6,30.19,SW,227,0.0,0.0,95,0.00,CLR,,0.00,WeatherDisplay:10.37,2013-08-27 00:58:00,
2013-08-26 21:03:00,74.0,72.8,30.19,SW,227,0.0,0.0,96,0.00,CLR,,0.00,WeatherDisplay:10.37,2013-08-27 01:03:00,
2013-08-26 21:08:00,73.6,72.4,30.19,SW,227,0.0,0.0,96,0.00,CLR,,0.00,WeatherDisplay:10.37,2013-08-27 01:08:00,
2013-08-26 21:13:00,73.4,71.9,30.19,SW,227,0.0,0.0,95,0.00,CLR,,0.00,WeatherDisplay:10.37,2013-08-27 01:13:00,
2013-08-26 21:18:00,73.4,71.9,30.19,SW,227,0.0,0.0,95,0.00,CLR,,0.00,WeatherDisplay:10.37,2013-08-27 01:18:00,
2013-08-26 21:23:00,73.1,71.9,30.19,SW,227,0.0,0.0,96,0.00,CLR,,0.00,WeatherDisplay:10.37,2013-08-27 01:23:00,
2013-08-26 21:28:00,73.0,71.8,30.19,SW,227,0.0,0.0,96,0.00,CLR,,0.00,WeatherDisplay:10.37,2013-08-27 01:28:00,
2013-08-26 21:33:00,72.9,71.7,30.19,SW,227,0.0,0.0,96,0.00,CLR,,0.00,WeatherDisplay:10.37,2013-08-27 01:33:00,
2013-08-26 21:38:00,72.6,71.4,30.19,SW,227,0.0,0.0,96,0.00,CLR,,0.00,WeatherDisplay:10.37,2013-08-27 01:38:00,
2013-08-26 21:43:00,72.3,71.4,30.20,SW,227,0.0,0.0,97,0.00,CLR,,0.00,WeatherDisplay:10.37,2013-08-27 01:43:00,
2013-08-26 21:48:00,72.2,71.3,30.20,SW,227,0.0,0.0,97,0.00,CLR,,0.00,WeatherDisplay:10.37,2013-08-27 01:48:00,
2013-08-26 21:53:00,72.1,71.5,30.20,SW,227,0.0,0.0,98,0.00,CLR,,0.00,WeatherDisplay:10.37,2013-08-27 01:53:00,
2013-08-26 21:58:00,71.8,71.2,30.20,SW,227,0.0,0.0,98,0.00,CLR,,0.00,WeatherDisplay:10.37,2013-08-27 01:58:00,
2013-08-26 22:03:00,71.5,70.9,30.19,SW,227,0.0,0.0,98,0.00,CLR,,0.00,WeatherDisplay:10.37,2013-08-27 02:03:00,
2013-08-26 22:08:00,71.7,71.1,30.20,SW,227,0.0,0.0,98,0.00,CLR,,0.00,WeatherDisplay:10.37,2013-08-27 02:08:00,
2013-08-26 22:13:00,71.5,70.9,30.20,SW,227,0.0,0.0,98,0.00,CLR,,0.00,WeatherDisplay:10.37,2013-08-27 02:13:00,
2013-08-26 22:18:00,71.3,70.7,30.20,SW,227,0.0,0.0,98,0.00,CLR,,0.00,WeatherDisplay:10.37,2013-08-27 02:18:00,
2013-08-26 22:23:00,71.0,70.7,30.20,SW,227,0.0,0.0,99,0.00,CLR,,0.00,WeatherDisplay:10.37,2013-08-27 02:23:00,
2013-08-26 22:28:00,71.1,70.8,30.20,SW,227,0.0,0.0,99,0.00,CLR,,0.00,WeatherDisplay:10.37,2013-08-27 02:28:00,
2013-08-26 22:33:00,71.0,70.7,30.19,SW,227,0.0,0.0,99,0.00,CLR,,0.00,WeatherDisplay:10.37,2013-08-27 02:33:00,
2013-08-26 22:38:00,70.9,70.6,30.19,SW,227,0.0,0.0,99,0.00,CLR,,0.00,WeatherDisplay:10.37,2013-08-27 02:38:00,
2013-08-26 22:43:00,70.9,70.6,30.19,SW,227,0.0,0.0,99,0.00,CLR,,0.00,WeatherDisplay:10.37,2013-08-27 02:43:00,
2013-08-26 22:48:00,70.6,70.3,30.19,SW,227,0.0,0.0,99,0.00,CLR,,0.00,WeatherDisplay:10.37,2013-08-27 02:48:00,
2013-08-26 22:53:00,70.3,70.3,30.19,SW,227,0.0,0.0,100,0.00,CLR,,0.00,WeatherDisplay:10.37,2013-08-27 02:53:00,
2013-08-26 22:58:00,70.6,70.3,30.19,SW,227,0.0,0.0,99,0.00,CLR,,0.00,WeatherDisplay:10.37,2013-08-27 02:58:00,
2013-08-26 23:03:00,70.5,70.2,30.19,SW,227,0.0,0.0,99,0.00,CLR,,0.00,WeatherDisplay:10.37,2013-08-27 03:03:00,
2013-08-26 23:08:00,70.3,70.0,30.19,SW,227,0.0,0.0,99,0.00,CLR,,0.00,WeatherDisplay:10.37,2013-08-27 03:08:00,
2013-08-26 23:13:00,70.0,70.0,30.20,SW,227,0.0,0.0,100,0.00,CLR,,0.00,WeatherDisplay:10.37,2013-08-27 03:13:00,
2013-08-26 23:18:00,70.2,69.9,30.20,SW,227,0.0,0.0,99,0.00,CLR,,0.00,WeatherDisplay:10.37,2013-08-27 03:18:00,
2013-08-26 23:23:00,70.0,70.0,30.20,SW,227,0.0,0.0,100,0.00,CLR,,0.00,WeatherDisplay:10.37,2013-08-27 03:23:00,
2013-08-26 23:28:00,69.7,69.7,30.20,SW,227,0.0,0.0,100,0.00,CLR,,0.00,WeatherDisplay:10.37,2013-08-27 03:28:00,
2013-08-26 23:33:00,69.7,69.7,30.20,SW,227,0.0,0.0,100,0.00,CLR,,0.00,WeatherDisplay:10.37,2013-08-27 03:33:00,
2013-08-26 23:38:00,69.7,69.7,30.20,SW,227,0.0,0.0,100,0.00,CLR,,0.00,WeatherDisplay:10.37,2013-08-27 03:38:00,
2013-08-26 23:43:00,69.5,69.5,30.20,SW,227,0.0,0.0,100,0.00,CLR,,0.00,WeatherDisplay:10.37,2013-08-27 03:43:00,
2013-08-26 23:48:00,69.3,69.3,30.20,SW,227,0.0,0.0,100,0.00,CLR,,0.00,WeatherDisplay:10.37,2013-08-27 03:48:00,
2013-08-26 23:53:00,69.2,69.2,30.20,SW,227,0.0,0.0,100,0.00,CLR,,0.00,WeatherDisplay:10.37,2013-08-27 03:53:00,
2013-08-26 23:58:00,69.3,69.3,30.20,SW,227,0.0,0.0,100,0.00,CLR,,0.00,WeatherDisplay:10.37,2013-08-27 03:58:00,